sensor_id;sensor_type;location;lat;lon;timestamp;pressure;altitude;pressure_sealevel;temperature;humidity
13312;BME280;34033;48.672;9.376;2023-06-10T00:00:00;98110.72;;;23.01;47.99
13312;BME280;34033;48.672;9.376;2023-06-10T00:02:26;98102.63;;;22.99;48.06
13312;BME280;34033;48.672;9.376;2023-06-10T00:04:52;98110.44;;;22.99;48.08
13312;BME280;34033;48.672;9.376;2023-06-10T00:07:17;98109.00;;;22.94;48.28
13312;BME280;34033;48.672;9.376;2023-06-10T00:09:43;98107.13;;;22.91;nan
13312;BME280;34033;48.672;9.376;2023-06-10T00:12:09;98105.53;;;22.90;48.55
13312;BME280;34033;48.672;9.376;2023-06-10T00:14:39;98105.53;;;22.90;48.57
13312;BME280;34033;48.672;9.376;2023-06-10T00:17:05;98102.69;;;22.90;48.69
13312;BME280;34033;48.672;9.376;2023-06-10T00:19:38;98105.88;;;22.92;48.50
13312;BME280;34033;48.672;9.376;2023-06-10T00:22:07;98107.13;;;22.91;48.70
13312;BME280;34033;48.672;9.376;2023-06-10T00:24:32;98108.38;;;22.90;48.58
13312;BME280;34033;48.672;9.376;2023-06-10T00:26:57;98114.09;;;22.90;48.21
13312;BME280;34033;48.672;9.376;2023-06-10T00:29:23;98108.56;;;22.86;48.46
13312;BME280;34033;48.672;9.376;2023-06-10T00:31:48;98102.09;;;22.86;48.23
13312;BME280;34033;48.672;9.376;2023-06-10T00:34:13;98104.63;;;22.84;48.44
13312;BME280;34033;48.672;9.376;2023-06-10T00:36:39;98103.03;;;22.83;48.36
13312;BME280;34033;48.672;9.376;2023-06-10T00:39:04;98102.25;;;22.82;48.26
13312;BME280;34033;48.672;9.376;2023-06-10T00:41:29;98102.75;;;22.81;48.14
13312;BME280;34033;48.672;9.376;2023-06-10T00:43:55;98113.81;;;22.79;48.19
13312;BME280;34033;48.672;9.376;2023-06-10T00:46:21;98104.19;;;22.76;48.13
13312;BME280;34033;48.672;9.376;2023-06-10T00:48:48;98100.22;;;22.74;48.06
13312;BME280;34033;48.672;9.376;2023-06-10T00:51:16;98101.16;;;22.71;48.06
13312;BME280;34033;48.672;9.376;2023-06-10T00:53:41;98098.97;;;22.66;48.29
13312;BME280;34033;48.672;9.376;2023-06-10T00:56:07;98103.88;;;22.65;48.40
13312;BME280;34033;48.672;9.376;2023-06-10T00:58:33;98102.31;;;22.64;48.30
13312;BME280;34033;48.672;9.376;2023-06-10T01:00:59;98103.09;;;22.65;48.33
13312;BME280;34033;48.672;9.376;2023-06-10T01:03:24;98096.75;;;22.61;48.40
13312;BME280;34033;48.672;9.376;2023-06-10T01:05:54;98095.19;;;22.60;48.56
13312;BME280;34033;48.672;9.376;2023-06-10T01:11:17;98093.63;;;22.59;48.51
13312;BME280;34033;48.672;9.376;2023-06-10T01:13:43;98097.91;;;22.54;48.68
13312;BME280;34033;48.672;9.376;2023-06-10T01:16:11;98097.75;;;22.49;48.89
13312;BME280;34033;48.672;9.376;2023-06-10T01:18:36;98095.84;;;22.45;48.91
13312;BME280;34033;48.672;9.376;2023-06-10T01:21:03;98106.97;;;22.43;49.25
13312;BME280;34033;48.672;9.376;2023-06-10T01:23:29;98100.75;;;22.45;49.11
13312;BME280;34033;48.672;9.376;2023-06-10T01:26:02;98096.81;;;22.42;48.93
13312;BME280;34033;48.672;9.376;2023-06-10T01:33:28;98094.63;;;22.37;49.22
13312;BME280;34033;48.672;9.376;2023-06-10T01:35:56;98101.59;;;22.36;49.16
13312;BME280;34033;48.672;9.376;2023-06-10T01:38:23;98108.53;;;22.35;49.36
13312;BME280;34033;48.672;9.376;2023-06-10T01:40:52;98099.69;;;22.33;49.39
13312;BME280;34033;48.672;9.376;2023-06-10T01:43:20;98111.84;;;22.34;49.25
13312;BME280;34033;48.672;9.376;2023-06-10T01:45:45;98097.31;;;22.32;49.62
13312;BME280;34033;48.672;9.376;2023-06-10T01:48:10;98100.31;;;22.28;49.46
13312;BME280;34033;48.672;9.376;2023-06-10T01:50:36;98106.97;;;22.25;49.68
13312;BME280;34033;48.672;9.376;2023-06-10T01:53:01;98097.03;;;22.21;49.46
13312;BME280;34033;48.672;9.376;2023-06-10T01:55:27;98105.72;;;22.17;49.51
13312;BME280;34033;48.672;9.376;2023-06-10T01:57:52;98109.06;;;22.16;49.78
13312;BME280;34033;48.672;9.376;2023-06-10T02:00:18;98105.09;;;22.13;49.78
13312;BME280;34033;48.672;9.376;2023-06-10T02:02:55;98112.84;;;22.13;49.70
13312;BME280;34033;48.672;9.376;2023-06-10T02:05:21;98113.31;;;22.11;49.79
13312;BME280;34033;48.672;9.376;2023-06-10T02:07:46;98113.03;;;22.09;49.86
13312;BME280;34033;48.672;9.376;2023-06-10T02:10:11;98113.03;;;22.09;49.84
13312;BME280;34033;48.672;9.376;2023-06-10T02:12:36;98115.88;;;22.09;49.96
13312;BME280;34033;48.672;9.376;2023-06-10T02:15:02;98110.03;;;22.03;50.03
13312;BME280;34033;48.672;9.376;2023-06-10T02:17:28;98120.00;;;21.99;50.05
13312;BME280;34033;48.672;9.376;2023-06-10T02:19:54;98121.38;;;21.94;50.48
13312;BME280;34033;48.672;9.376;2023-06-10T02:22:20;98123.13;;;21.92;50.36
13312;BME280;34033;48.672;9.376;2023-06-10T02:24:46;98118.22;;;21.92;50.49
13312;BME280;34033;48.672;9.376;2023-06-10T02:27:11;98122.66;;;21.93;50.55
13312;BME280;34033;48.672;9.376;2023-06-10T02:29:36;98119.81;;;21.93;50.54
13312;BME280;34033;48.672;9.376;2023-06-10T02:32:02;98121.06;;;21.92;50.50
13312;BME280;34033;48.672;9.376;2023-06-10T02:34:28;98125.97;;;21.92;50.36
13312;BME280;34033;48.672;9.376;2023-06-10T02:36:54;98131.03;;;21.88;50.29
13312;BME280;34033;48.672;9.376;2023-06-10T02:39:21;98131.97;;;21.85;50.44
13312;BME280;34033;48.672;9.376;2023-06-10T02:41:46;98126.91;;;21.80;50.54
13312;BME280;34033;48.672;9.376;2023-06-10T02:44:12;98134.34;;;21.77;50.33
13312;BME280;34033;48.672;9.376;2023-06-10T02:46:37;98141.28;;;21.76;50.50
13312;BME280;34033;48.672;9.376;2023-06-10T02:49:02;98146.19;;;21.76;50.61
13312;BME280;34033;48.672;9.376;2023-06-10T02:51:28;98139.25;;;21.77;50.53
13312;BME280;34033;48.672;9.376;2023-06-10T02:53:53;98137.94;;;21.78;50.30
13312;BME280;34033;48.672;9.376;2023-06-10T02:56:19;98141.59;;;21.78;50.67
13312;BME280;34033;48.672;9.376;2023-06-10T02:58:45;98142.88;;;21.77;50.70
13312;BME280;34033;48.672;9.376;2023-06-10T03:01:10;98140.03;;;21.77;50.62
13312;BME280;34033;48.672;9.376;2023-06-10T03:03:36;98141.75;;;21.75;50.84
13312;BME280;34033;48.672;9.376;2023-06-10T03:06:05;98141.44;;;21.73;50.62
13312;BME280;34033;48.672;9.376;2023-06-10T03:08:31;98149.34;;;21.69;50.45
13312;BME280;34033;48.672;9.376;2023-06-10T03:10:56;98150.59;;;21.68;50.56
13312;BME280;34033;48.672;9.376;2023-06-10T03:13:21;98145.53;;;21.62;50.95
13312;BME280;34033;48.672;9.376;2023-06-10T03:15:47;98152.47;;;21.61;50.89
13312;BME280;34033;48.672;9.376;2023-06-10T03:18:12;98149.00;;;21.57;50.99
13312;BME280;34033;48.672;9.376;2023-06-10T03:20:37;98158.78;;;21.56;51.08
13312;BME280;34033;48.672;9.376;2023-06-10T03:23:05;98153.09;;;21.47;51.37
13312;BME280;34033;48.672;9.376;2023-06-10T03:25:32;98166.19;;;21.45;51.58
13312;BME280;34033;48.672;9.376;2023-06-10T03:27:57;98169.81;;;21.45;51.68
13312;BME280;34033;48.672;9.376;2023-06-10T03:30:22;98173.16;;;21.44;51.79
13312;BME280;34033;48.672;9.376;2023-06-10T03:32:48;98179.66;;;21.44;51.63
13312;BME280;34033;48.672;9.376;2023-06-10T03:35:14;98179.94;;;21.46;51.66
13312;BME280;34033;48.672;9.376;2023-06-10T03:37:40;98177.75;;;21.50;51.53
13312;BME280;34033;48.672;9.376;2023-06-10T03:40:06;98177.28;;;21.52;51.57
13312;BME280;34033;48.672;9.376;2023-06-10T03:42:32;98179.31;;;21.51;51.51
13312;BME280;34033;48.672;9.376;2023-06-10T03:44:57;98181.88;;;21.49;51.70
13312;BME280;34033;48.672;9.376;2023-06-10T03:47:23;98176.63;;;21.48;51.63
13312;BME280;34033;48.672;9.376;2023-06-10T03:49:48;98186.28;;;21.50;51.50
13312;BME280;34033;48.672;9.376;2023-06-10T03:52:13;98182.16;;;21.51;51.69
13312;BME280;34033;48.672;9.376;2023-06-10T03:54:39;98183.75;;;21.52;51.68
13312;BME280;34033;48.672;9.376;2023-06-10T03:57:04;98188.53;;;21.55;51.34
13312;BME280;34033;48.672;9.376;2023-06-10T03:59:31;98186.44;;;21.56;51.50
13312;BME280;34033;48.672;9.376;2023-06-10T04:01:56;98191.66;;;21.57;51.43
13312;BME280;34033;48.672;9.376;2023-06-10T04:04:23;98195.94;;;21.62;51.11
13312;BME280;34033;48.672;9.376;2023-06-10T04:06:48;98191.03;;;21.62;51.18
13312;BME280;34033;48.672;9.376;2023-06-10T04:09:14;98194.22;;;21.64;51.13
13312;BME280;34033;48.672;9.376;2023-06-10T04:11:41;98186.94;;;21.63;51.02
13312;BME280;34033;48.672;9.376;2023-06-10T04:14:07;98194.56;;;21.67;50.99
13312;BME280;34033;48.672;9.376;2023-06-10T04:16:33;98194.84;;;21.69;50.54
13312;BME280;34033;48.672;9.376;2023-06-10T04:18:59;98190.41;;;21.68;51.04
13312;BME280;34033;48.672;9.376;2023-06-10T04:21:26;98192.81;;;21.69;51.00
13312;BME280;34033;48.672;9.376;2023-06-10T04:23:51;98198.66;;;21.66;51.11
13312;BME280;34033;48.672;9.376;2023-06-10T04:26:16;98195.81;;;21.66;51.05
13312;BME280;34033;48.672;9.376;2023-06-10T04:28:43;98205.94;;;21.67;51.04
13312;BME280;34033;48.672;9.376;2023-06-10T04:31:08;98203.53;;;21.65;51.05
13312;BME280;34033;48.672;9.376;2023-06-10T04:33:34;98204.00;;;21.54;51.48
13312;BME280;34033;48.672;9.376;2023-06-10T04:35:59;98209.03;;;21.50;51.64
13312;BME280;34033;48.672;9.376;2023-06-10T04:38:24;98212.47;;;21.45;51.52
13312;BME280;34033;48.672;9.376;2023-06-10T04:40:50;98200.47;;;21.32;52.00
13312;BME280;34033;48.672;9.376;2023-06-10T04:43:15;98204.22;;;21.29;51.96
13312;BME280;34033;48.672;9.376;2023-06-10T04:45:41;98213.88;;;21.32;52.05
13312;BME280;34033;48.672;9.376;2023-06-10T04:48:09;98214.06;;;21.37;52.01
13312;BME280;34033;48.672;9.376;2023-06-10T04:50:36;98214.69;;;21.41;52.03
13312;BME280;34033;48.672;9.376;2023-06-10T04:53:01;98211.84;;;21.41;52.01
13312;BME280;34033;48.672;9.376;2023-06-10T04:55:26;98211.22;;;21.46;51.84
13312;BME280;34033;48.672;9.376;2023-06-10T04:57:52;98215.03;;;21.52;51.66
13312;BME280;34033;48.672;9.376;2023-06-10T05:00:18;98215.22;;;21.58;51.53
13312;BME280;34033;48.672;9.376;2023-06-10T05:02:43;98216.97;;;21.55;51.65
13312;BME280;34033;48.672;9.376;2023-06-10T05:05:10;98217.25;;;21.57;51.52
13312;BME280;34033;48.672;9.376;2023-06-10T05:07:35;98216.66;;;21.62;51.45
13312;BME280;34033;48.672;9.376;2023-06-10T05:10:00;98213.81;;;21.62;51.40
13312;BME280;34033;48.672;9.376;2023-06-10T05:12:26;98214.94;;;21.65;51.38
13312;BME280;34033;48.672;9.376;2023-06-10T05:14:52;98227.72;;;21.70;51.27
13312;BME280;34033;48.672;9.376;2023-06-10T05:17:17;98222.66;;;21.64;51.40
13312;BME280;34033;48.672;9.376;2023-06-10T05:19:42;98217.44;;;21.63;51.40
13312;BME280;34033;48.672;9.376;2023-06-10T05:22:08;98214.47;;;21.67;51.30
13312;BME280;34033;48.672;9.376;2023-06-10T05:24:34;98217.94;;;21.71;51.23
13312;BME280;34033;48.672;9.376;2023-06-10T05:26:59;98215.41;;;21.73;51.39
13312;BME280;34033;48.672;9.376;2023-06-10T05:29:25;98224.09;;;21.78;51.22
13312;BME280;34033;48.672;9.376;2023-06-10T05:31:51;98223.47;;;21.83;51.29
13312;BME280;34033;48.672;9.376;2023-06-10T05:34:16;98227.91;;;21.75;51.57
13312;BME280;34033;48.672;9.376;2023-06-10T05:36:41;98227.75;;;21.79;51.39
13312;BME280;34033;48.672;9.376;2023-06-10T05:39:07;98229.00;;;21.78;51.38
13312;BME280;34033;48.672;9.376;2023-06-10T05:41:32;98222.56;;;21.86;51.27
13312;BME280;34033;48.672;9.376;2023-06-10T05:43:58;98220.19;;;21.94;51.04
13312;BME280;34033;48.672;9.376;2023-06-10T05:46:23;98226.09;;;21.99;51.07
13312;BME280;34033;48.672;9.376;2023-06-10T05:48:49;98226.25;;;22.05;50.88
13312;BME280;34033;48.672;9.376;2023-06-10T05:51:14;98225.28;;;22.08;50.86
13312;BME280;34033;48.672;9.376;2023-06-10T05:53:39;98233.38;;;22.10;50.63
13312;BME280;34033;48.672;9.376;2023-06-10T05:56:05;98223.06;;;22.12;50.57
13312;BME280;34033;48.672;9.376;2023-06-10T05:58:30;98228.94;;;22.18;50.33
13312;BME280;34033;48.672;9.376;2023-06-10T06:00:55;98229.72;;;22.18;50.41
13312;BME280;34033;48.672;9.376;2023-06-10T06:03:21;98229.09;;;22.14;50.69
13312;BME280;34033;48.672;9.376;2023-06-10T06:05:46;98231.63;;;22.12;50.71
13312;BME280;34033;48.672;9.376;2023-06-10T06:08:12;98235.25;;;22.03;50.89
13312;BME280;34033;48.672;9.376;2023-06-10T06:10:39;98227.91;;;21.84;51.81
13312;BME280;34033;48.672;9.376;2023-06-10T06:13:04;98234.72;;;21.87;51.95
13312;BME280;34033;48.672;9.376;2023-06-10T06:15:29;98234.44;;;21.94;53.37
13312;BME280;34033;48.672;9.376;2023-06-10T06:17:55;98230.81;;;22.12;55.44
13312;BME280;34033;48.672;9.376;2023-06-10T06:20:21;98224.66;;;22.22;55.01
13312;BME280;34033;48.672;9.376;2023-06-10T06:22:47;98227.03;;;22.24;53.14
13312;BME280;34033;48.672;9.376;2023-06-10T06:25:12;98226.56;;;22.34;53.14
13312;BME280;34033;48.672;9.376;2023-06-10T06:27:38;98234.31;;;22.43;52.95
13312;BME280;34033;48.672;9.376;2023-06-10T06:30:04;98229.09;;;22.51;52.45
13312;BME280;34033;48.672;9.376;2023-06-10T06:32:30;98224.66;;;22.59;52.28
13312;BME280;34033;48.672;9.376;2023-06-10T06:34:55;98230.34;;;22.68;51.88
13312;BME280;34033;48.672;9.376;2023-06-10T06:37:24;98235.09;;;22.71;51.72
13312;BME280;34033;48.672;9.376;2023-06-10T06:39:51;98223.09;;;22.76;51.71
13312;BME280;34033;48.672;9.376;2023-06-10T06:42:16;98230.03;;;22.75;51.39
13312;BME280;34033;48.672;9.376;2023-06-10T06:44:42;98228.44;;;22.56;51.97
13312;BME280;34033;48.672;9.376;2023-06-10T06:47:07;98234.13;;;22.56;52.16
13312;BME280;34033;48.672;9.376;2023-06-10T06:49:32;98217.22;;;22.52;52.00
13312;BME280;34033;48.672;9.376;2023-06-10T06:51:58;98217.22;;;22.52;52.55
13312;BME280;34033;48.672;9.376;2023-06-10T06:54:23;98226.25;;;22.60;52.41
13312;BME280;34033;48.672;9.376;2023-06-10T06:56:48;98225.28;;;22.54;52.68
13312;BME280;34033;48.672;9.376;2023-06-10T06:59:14;98224.34;;;22.48;52.51
13312;BME280;34033;48.672;9.376;2023-06-10T07:01:39;98233.19;;;22.59;52.23
13312;BME280;34033;48.672;9.376;2023-06-10T07:04:05;98247.75;;;22.52;53.04
13312;BME280;34033;48.672;9.376;2023-06-10T07:06:30;98244.59;;;22.50;53.09
13312;BME280;34033;48.672;9.376;2023-06-10T07:08:56;98231.28;;;22.56;53.46
13312;BME280;34033;48.672;9.376;2023-06-10T07:11:21;98245.22;;;22.72;52.91
13312;BME280;34033;48.672;9.376;2023-06-10T07:13:47;98235.09;;;22.80;52.78
13312;BME280;34033;48.672;9.376;2023-06-10T07:16:12;98239.97;;;22.88;52.38
13312;BME280;34033;48.672;9.376;2023-06-10T07:18:38;98233.81;;;22.90;52.54
13312;BME280;34033;48.672;9.376;2023-06-10T07:21:03;98231.88;;;22.96;52.51
13312;BME280;34033;48.672;9.376;2023-06-10T07:23:28;98236.00;;;23.04;52.54
13312;BME280;34033;48.672;9.376;2023-06-10T07:25:54;98226.84;;;22.91;53.48
13312;BME280;34033;48.672;9.376;2023-06-10T07:28:19;98236.34;;;22.61;54.56
13312;BME280;34033;48.672;9.376;2023-06-10T07:30:44;98228.00;;;22.75;53.79
13312;BME280;34033;48.672;9.376;2023-06-10T07:33:10;98240.47;;;22.69;54.37
13312;BME280;34033;48.672;9.376;2023-06-10T07:35:36;98231.28;;;22.92;53.43
13312;BME280;34033;48.672;9.376;2023-06-10T07:38:01;98229.19;;;23.02;53.11
13312;BME280;34033;48.672;9.376;2023-06-10T07:40:26;98224.09;;;23.06;53.30
13312;BME280;34033;48.672;9.376;2023-06-10T07:42:52;98227.78;;;22.97;53.71
13312;BME280;34033;48.672;9.376;2023-06-10T07:45:18;98220.16;;;22.94;53.29
13312;BME280;34033;48.672;9.376;2023-06-10T07:47:43;98220.13;;;23.12;53.48
13312;BME280;34033;48.672;9.376;2023-06-10T07:50:09;98226.09;;;23.23;52.94
13312;BME280;34033;48.672;9.376;2023-06-10T07:52:35;98218.53;;;23.20;52.87
13312;BME280;34033;48.672;9.376;2023-06-10T07:55:00;98215.16;;;23.31;52.45
13312;BME280;34033;48.672;9.376;2023-06-10T07:57:25;98215.44;;;23.33;52.19
13312;BME280;34033;48.672;9.376;2023-06-10T07:59:51;98209.66;;;23.18;51.40
13312;BME280;34033;48.672;9.376;2023-06-10T08:02:16;98210.78;;;23.12;51.46
13312;BME280;34033;48.672;9.376;2023-06-10T08:04:41;98213.94;;;23.14;51.63
13312;BME280;34033;48.672;9.376;2023-06-10T08:07:07;98214.38;;;23.21;51.12
13312;BME280;34033;48.672;9.376;2023-06-10T08:09:32;98211.94;;;23.38;51.39
13312;BME280;34033;48.672;9.376;2023-06-10T08:11:58;98208.28;;;23.38;51.75
13312;BME280;34033;48.672;9.376;2023-06-10T08:14:23;98207.38;;;23.32;51.83
13312;BME280;34033;48.672;9.376;2023-06-10T08:16:48;98206.72;;;23.37;51.80
13312;BME280;34033;48.672;9.376;2023-06-10T08:19:14;98205.72;;;23.49;51.81
13312;BME280;34033;48.672;9.376;2023-06-10T08:21:39;98204.56;;;23.55;51.43
13312;BME280;34033;48.672;9.376;2023-06-10T08:24:09;98204.28;;;23.77;50.91
13312;BME280;34033;48.672;9.376;2023-06-10T08:26:35;98200.41;;;23.89;49.78
13312;BME280;34033;48.672;9.376;2023-06-10T08:29:00;98203.44;;;24.09;48.96
13312;BME280;34033;48.672;9.376;2023-06-10T08:31:25;98197.59;;;24.28;49.24
13312;BME280;34033;48.672;9.376;2023-06-10T08:33:51;98202.63;;;24.33;49.61
13312;BME280;34033;48.672;9.376;2023-06-10T08:36:16;98202.16;;;24.34;49.14
13312;BME280;34033;48.672;9.376;2023-06-10T08:38:41;98198.22;;;24.08;49.90
13312;BME280;34033;48.672;9.376;2023-06-10T08:41:09;98199.06;;;23.99;49.78
13312;BME280;34033;48.672;9.376;2023-06-10T08:43:48;98208.66;;;24.11;49.87
13312;BME280;34033;48.672;9.376;2023-06-10T08:46:16;98199.78;;;24.33;49.35
13312;BME280;34033;48.672;9.376;2023-06-10T08:48:43;98202.75;;;24.38;48.75
13312;BME280;34033;48.672;9.376;2023-06-10T08:51:12;98207.72;;;24.52;49.01
13312;BME280;34033;48.672;9.376;2023-06-10T08:53:51;98205.16;;;24.69;48.83
13312;BME280;34033;48.672;9.376;2023-06-10T08:56:18;98203.09;;;24.70;47.79
13312;BME280;34033;48.672;9.376;2023-06-10T08:58:45;98203.97;;;24.76;47.56
13312;BME280;34033;48.672;9.376;2023-06-10T09:01:11;98205.44;;;24.71;47.72
13312;BME280;34033;48.672;9.376;2023-06-10T09:03:37;98198.03;;;24.50;47.80
13312;BME280;34033;48.672;9.376;2023-06-10T09:06:05;98193.69;;;24.40;47.99
13312;BME280;34033;48.672;9.376;2023-06-10T09:08:33;98188.31;;;24.57;47.85
13312;BME280;34033;48.672;9.376;2023-06-10T09:11:00;98189.78;;;24.67;47.61
13312;BME280;34033;48.672;9.376;2023-06-10T09:13:25;98198.88;;;24.80;47.72
13312;BME280;34033;48.672;9.376;2023-06-10T09:15:51;98195.03;;;24.98;47.21
13312;BME280;34033;48.672;9.376;2023-06-10T09:18:16;98186.63;;;25.09;47.02
13312;BME280;34033;48.672;9.376;2023-06-10T09:20:43;98192.78;;;25.02;46.76
13312;BME280;34033;48.672;9.376;2023-06-10T09:23:09;98192.25;;;25.18;46.16
13312;BME280;34033;48.672;9.376;2023-06-10T09:25:37;98194.72;;;25.25;46.19
13312;BME280;34033;48.672;9.376;2023-06-10T09:28:03;98185.59;;;25.56;46.06
13312;BME280;34033;48.672;9.376;2023-06-10T09:30:31;98187.84;;;25.87;45.11
13312;BME280;34033;48.672;9.376;2023-06-10T09:32:58;98185.78;;;26.07;44.15
13312;BME280;34033;48.672;9.376;2023-06-10T09:35:29;98174.63;;;26.30;43.94
13312;BME280;34033;48.672;9.376;2023-06-10T09:37:57;98187.22;;;26.64;43.69
13312;BME280;34033;48.672;9.376;2023-06-10T09:40:23;98175.09;;;26.48;43.46
13312;BME280;34033;48.672;9.376;2023-06-10T09:45:21;98181.16;;;26.82;42.33
13312;BME280;34033;48.672;9.376;2023-06-10T09:47:51;98178.69;;;26.43;42.62
13312;BME280;34033;48.672;9.376;2023-06-10T09:50:17;98180.56;;;26.26;43.38
13312;BME280;34033;48.672;9.376;2023-06-10T09:52:42;98169.66;;;26.30;43.03
13312;BME280;34033;48.672;9.376;2023-06-10T09:55:08;98171.59;;;26.39;42.92
13312;BME280;34033;48.672;9.376;2023-06-10T09:57:35;98171.09;;;26.66;42.74
13312;BME280;34033;48.672;9.376;2023-06-10T10:00:19;98165.63;;;26.42;41.72
13312;BME280;34033;48.672;9.376;2023-06-10T10:02:52;98162.78;;;26.42;42.45
13312;BME280;34033;48.672;9.376;2023-06-10T10:05:20;98159.78;;;26.31;42.21
13312;BME280;34033;48.672;9.376;2023-06-10T10:07:46;98166.53;;;26.28;42.24
13312;BME280;34033;48.672;9.376;2023-06-10T10:10:14;98169.91;;;26.52;41.97
13312;BME280;34033;48.672;9.376;2023-06-10T10:12:40;98167.50;;;26.97;42.10
13312;BME280;34033;48.672;9.376;2023-06-10T10:15:07;98165.38;;;27.23;41.02
13312;BME280;34033;48.672;9.376;2023-06-10T10:17:34;98158.69;;;27.37;39.71
13312;BME280;34033;48.672;9.376;2023-06-10T10:20:05;98158.22;;;27.45;40.04
13312;BME280;34033;48.672;9.376;2023-06-10T10:22:38;98164.09;;;27.61;39.61
13312;BME280;34033;48.672;9.376;2023-06-10T10:25:10;98150.97;;;27.97;38.91
13312;BME280;34033;48.672;9.376;2023-06-10T10:27:41;98143.53;;;27.74;38.82
13312;BME280;34033;48.672;9.376;2023-06-10T10:30:10;98148.03;;;27.86;38.85
13312;BME280;34033;48.672;9.376;2023-06-10T10:33:04;98149.59;;;27.39;39.17
13312;BME280;34033;48.672;9.376;2023-06-10T10:35:33;98149.22;;;27.26;38.99
13312;BME280;34033;48.672;9.376;2023-06-10T10:37:58;98157.66;;;27.40;39.22
13312;BME280;34033;48.672;9.376;2023-06-10T10:40:25;98150.75;;;27.21;39.55
13312;BME280;34033;48.672;9.376;2023-06-10T10:42:55;98150.03;;;27.32;39.26
13312;BME280;34033;48.672;9.376;2023-06-10T10:45:21;98143.84;;;27.39;38.62
13312;BME280;34033;48.672;9.376;2023-06-10T10:47:52;98145.00;;;27.21;38.14
13312;BME280;34033;48.672;9.376;2023-06-10T10:50:19;98141.09;;;27.56;38.78
13312;BME280;34033;48.672;9.376;2023-06-10T10:52:56;98139.00;;;28.04;37.85
13312;BME280;34033;48.672;9.376;2023-06-10T10:55:23;98138.59;;;28.28;37.04
13312;BME280;34033;48.672;9.376;2023-06-10T10:57:59;98130.31;;;27.93;37.70
13312;BME280;34033;48.672;9.376;2023-06-10T11:00:30;98137.38;;;27.50;37.80
13312;BME280;34033;48.672;9.376;2023-06-10T11:05:42;98130.38;;;28.04;37.11
13312;BME280;34033;48.672;9.376;2023-06-10T11:08:10;98126.56;;;28.30;36.53
13312;BME280;34033;48.672;9.376;2023-06-10T11:10:39;98130.50;;;28.38;36.30
13312;BME280;34033;48.672;9.376;2023-06-10T11:13:25;98122.09;;;28.34;35.80
13312;BME280;34033;48.672;9.376;2023-06-10T11:15:51;98130.50;;;28.32;35.61
13312;BME280;34033;48.672;9.376;2023-06-10T11:18:28;98124.22;;;28.34;36.22
13312;BME280;34033;48.672;9.376;2023-06-10T11:31:29;98123.44;;;30.41;33.27
13312;BME280;34033;48.672;9.376;2023-06-10T11:34:00;98118.16;;;30.45;32.49
13312;BME280;34033;48.672;9.376;2023-06-10T11:36:26;98123.97;;;30.34;32.89
13312;BME280;34033;48.672;9.376;2023-06-10T11:39:00;98113.31;;;30.70;32.94
13312;BME280;34033;48.672;9.376;2023-06-10T11:41:27;98118.38;;;30.58;32.66
13312;BME280;34033;48.672;9.376;2023-06-10T11:43:53;98110.03;;;30.44;33.01
13312;BME280;34033;48.672;9.376;2023-06-10T11:46:22;98114.44;;;30.56;33.10
13312;BME280;34033;48.672;9.376;2023-06-10T11:48:52;98108.13;;;30.57;33.17
13312;BME280;34033;48.672;9.376;2023-06-10T11:51:18;98107.13;;;30.49;33.02
13312;BME280;34033;48.672;9.376;2023-06-10T11:53:44;98104.44;;;30.10;33.74
13312;BME280;34033;48.672;9.376;2023-06-10T11:56:10;98106.69;;;30.34;33.80
13312;BME280;34033;48.672;9.376;2023-06-10T11:58:35;98108.19;;;30.46;33.03
13312;BME280;34033;48.672;9.376;2023-06-10T12:01:01;98101.19;;;30.72;32.93
13312;BME280;34033;48.672;9.376;2023-06-10T12:03:35;98100.81;;;30.92;32.70
13312;BME280;34033;48.672;9.376;2023-06-10T12:06:04;98100.13;;;31.10;32.26
13312;BME280;34033;48.672;9.376;2023-06-10T12:08:30;98099.13;;;31.08;32.05
13312;BME280;34033;48.672;9.376;2023-06-10T12:10:56;98099.75;;;31.49;31.38
13312;BME280;34033;48.672;9.376;2023-06-10T12:13:23;98094.88;;;31.38;30.90
13312;BME280;34033;48.672;9.376;2023-06-10T12:15:49;98096.22;;;31.08;31.94
13312;BME280;34033;48.672;9.376;2023-06-10T12:18:22;98096.44;;;30.80;32.30
13312;BME280;34033;48.672;9.376;2023-06-10T12:20:48;98091.47;;;31.10;30.87
13312;BME280;34033;48.672;9.376;2023-06-10T12:23:14;98088.09;;;31.60;30.80
13312;BME280;34033;48.672;9.376;2023-06-10T12:25:49;98084.84;;;31.69;30.77
13312;BME280;34033;48.672;9.376;2023-06-10T12:28:16;98085.56;;;31.75;31.01
13312;BME280;34033;48.672;9.376;2023-06-10T12:30:42;98084.88;;;31.88;30.80
13312;BME280;34033;48.672;9.376;2023-06-10T12:33:21;98080.50;;;32.00;30.91
13312;BME280;34033;48.672;9.376;2023-06-10T12:35:53;98089.91;;;32.44;29.55
13312;BME280;34033;48.672;9.376;2023-06-10T12:38:22;98078.50;;;32.70;28.94
13312;BME280;34033;48.672;9.376;2023-06-10T12:40:50;98077.91;;;32.90;28.68
13312;BME280;34033;48.672;9.376;2023-06-10T12:43:22;98080.97;;;33.11;27.55
13312;BME280;34033;48.672;9.376;2023-06-10T12:45:48;98073.34;;;33.27;28.24
13312;BME280;34033;48.672;9.376;2023-06-10T12:48:23;98079.84;;;33.59;27.46
13312;BME280;34033;48.672;9.376;2023-06-10T12:50:56;98067.03;;;34.07;27.58
13312;BME280;34033;48.672;9.376;2023-06-10T12:53:22;98080.97;;;34.22;27.16
13312;BME280;34033;48.672;9.376;2023-06-10T12:55:49;98070.69;;;34.55;26.97
13312;BME280;34033;48.672;9.376;2023-06-10T12:58:14;98073.34;;;34.66;27.17
13312;BME280;34033;48.672;9.376;2023-06-10T13:00:40;98069.03;;;34.80;26.50
13312;BME280;34033;48.672;9.376;2023-06-10T13:03:07;98064.72;;;34.40;26.49
13312;BME280;34033;48.672;9.376;2023-06-10T13:05:37;98078.69;;;33.23;27.61
13312;BME280;34033;48.672;9.376;2023-06-10T13:08:04;98069.94;;;33.09;27.83
13312;BME280;34033;48.672;9.376;2023-06-10T13:10:30;98061.81;;;32.76;27.79
13312;BME280;34033;48.672;9.376;2023-06-10T13:12:55;98065.75;;;32.04;29.10
13312;BME280;34033;48.672;9.376;2023-06-10T13:15:21;98060.44;;;31.65;29.32
13312;BME280;34033;48.672;9.376;2023-06-10T13:17:47;98059.00;;;31.28;30.67
13312;BME280;34033;48.672;9.376;2023-06-10T13:20:16;98059.56;;;30.97;30.94